Time;durP1;ratioP1;P1;durP2;ratioP2;P2;SDS_P1;SDS_P2;PMS_P1;PMS_P2;Temp;Humidity;BMP_temperature;BMP_pressure;BME280_temperature;BME280_humidity;BME280_pressure;Samples;Min_cycle;Max_cycle;Signal;HPM_P1;HPM_P2
2022/08/19 00:01:34;;;;;;;;;;;;;;;24.66;54.48;100932.75;5132685;27;19931;-36
2022/08/19 00:04:03;;;;;;;;;;;;;;;24.66;54.33;100924.38;5133816;27;19923;-37
2022/08/19 00:06:29;;;;;;;;;;;;;;;24.67;54.48;100928.81;5132089;27;20033;-36
2022/08/19 00:08:55;;;;;;;;;;;;;;;24.66;54.48;100929.97;5149451;27;19923;-36
2022/08/19 00:11:21;;;;;;;;;;;;;;;24.66;54.29;100932.75;5133829;27;20018;-36
2022/08/19 00:13:51;;;;;;;;;;;;;;;24.66;54.38;100931.94;5154093;27;19927;-36
2022/08/19 00:16:19;;;;;;;;;;;;;;;24.66;54.30;100934.72;5153851;27;19945;-36
2022/08/19 00:18:50;;;;;;;;;;;;;;;24.66;54.31;100935.53;5154515;27;19923;-36
2022/08/19 00:21:16;;;;;;;;;;;;;;;24.66;54.27;100938.31;5155001;27;19930;-36
2022/08/19 00:23:42;;;;;;;;;;;;;;;24.65;54.44;100936.66;5135608;27;19937;-36
2022/08/19 00:26:08;;;;;;;;;;;;;;;24.65;54.43;100928.28;5142130;27;20381;-36
2022/08/19 00:28:35;;;;;;;;;;;;;;;24.66;54.36;100932.75;5154765;27;19977;-36
2022/08/19 00:31:02;;;;;;;;;;;;;;;24.67;54.44;100925.22;5154233;27;19978;-36
2022/08/19 00:33:30;;;;;;;;;;;;;;;24.65;54.30;100917.16;5149516;27;19954;-36
2022/08/19 00:35:56;;;;;;;;;;;;;;;24.65;54.42;100919.13;5154031;27;19991;-37
2022/08/19 00:38:22;;;;;;;;;;;;;;;24.65;54.22;100917.16;5154013;27;20334;-37
2022/08/19 00:41:03;;;;;;;;;;;;;;;24.66;54.43;100923.56;5153884;27;19923;-37
2022/08/19 00:43:28;;;;;;;;;;;;;;;24.65;54.41;100921.91;5154254;27;19991;-36
2022/08/19 00:45:54;;;;;;;;;;;;;;;24.65;54.30;100927.47;5150990;27;19931;-36
2022/08/19 00:48:20;;;;;;;;;;;;;;;24.65;54.47;100921.91;5137358;27;19923;-36
2022/08/19 00:50:46;;;;;;;;;;;;;;;24.64;54.43;100915.50;5153712;27;19930;-36
2022/08/19 00:53:18;;;;;;;;;;;;;;;24.65;54.47;100922.72;5154316;27;19930;-36
2022/08/19 00:55:44;;;;;;;;;;;;;;;24.64;54.49;100918.31;5152627;27;20006;-36
2022/08/19 00:58:12;;;;;;;;;;;;;;;24.64;54.37;100918.31;5137161;27;20250;-36
2022/08/19 01:00:37;;;;;;;;;;;;;;;24.64;54.21;100909.94;5154723;27;20403;-36
2022/08/19 01:03:05;;;;;;;;;;;;;;;24.65;54.35;100899.63;5132108;27;20030;-36
2022/08/19 01:05:30;;;;;;;;;;;;;;;24.64;54.32;100911.91;5141833;27;19989;-36
2022/08/19 01:07:56;;;;;;;;;;;;;;;24.64;54.37;100920.28;5153392;27;19923;-36
2022/08/19 01:10:23;;;;;;;;;;;;;;;24.64;54.31;100928.63;5153938;27;19923;-36
2022/08/19 01:12:48;;;;;;;;;;;;;;;24.64;54.35;100923.06;5152184;27;19958;-37
2022/08/19 01:15:16;;;;;;;;;;;;;;;24.63;54.38;100919.44;5152157;27;19924;-36
2022/08/19 01:17:42;;;;;;;;;;;;;;;24.63;54.45;100919.44;5152090;27;20018;-36
2022/08/19 01:20:11;;;;;;;;;;;;;;;24.63;54.43;100922.22;5154813;27;19931;-36
2022/08/19 01:22:38;;;;;;;;;;;;;;;24.64;54.47;100923.06;5138489;27;19985;-36
2022/08/19 01:25:03;;;;;;;;;;;;;;;24.63;54.39;100922.22;5154791;27;20273;-36
2022/08/19 01:27:40;;;;;;;;;;;;;;;24.63;54.36;100911.09;5152770;27;19930;-36
2022/08/19 01:30:10;;;;;;;;;;;;;;;24.63;54.32;100915.84;5152813;27;19923;-36
2022/08/19 01:32:35;;;;;;;;;;;;;;;24.63;54.36;100902.75;5152824;27;21493;-36
2022/08/19 01:35:02;;;;;;;;;;;;;;;24.63;54.21;100913.06;5152201;27;19923;-35
2022/08/19 01:37:27;;;;;;;;;;;;;;;24.62;54.30;100909.47;5150848;27;19977;-36
2022/08/19 01:39:53;;;;;;;;;;;;;;;24.62;54.32;100909.47;5131096;27;20307;-36
2022/08/19 01:42:19;;;;;;;;;;;;;;;24.62;54.27;100909.47;5153010;27;21063;-36
2022/08/19 01:44:53;;;;;;;;;;;;;;;24.63;54.33;100911.09;5150224;27;20277;-36
2022/08/19 01:47:19;;;;;;;;;;;;;;;24.61;54.48;100907.81;5150343;27;19931;-36
2022/08/19 01:49:44;;;;;;;;;;;;;;;24.62;54.25;100914.22;5151844;27;19955;-36
2022/08/19 01:52:10;;;;;;;;;;;;;;;24.61;54.26;100904.19;5153430;27;19930;-36
2022/08/19 01:54:35;;;;;;;;;;;;;;;24.62;54.41;100911.44;5150683;27;19931;-36
2022/08/19 01:57:03;;;;;;;;;;;;;;;24.62;54.30;100912.25;5152850;27;20326;-36
2022/08/19 01:59:29;;;;;;;;;;;;;;;24.61;54.38;100910.59;5132977;27;19978;-36
2022/08/19 02:01:54;;;;;;;;;;;;;;;24.62;54.38;100911.44;5151216;27;20285;-36
2022/08/19 02:04:20;;;;;;;;;;;;;;;24.61;54.23;100904.19;5152231;27;19930;-36
2022/08/19 02:06:46;;;;;;;;;;;;;;;24.62;54.42;100911.44;5152990;27;19938;-35
2022/08/19 02:09:11;;;;;;;;;;;;;;;24.62;54.41;100903.06;5152540;27;20363;-36
2022/08/19 02:11:37;;;;;;;;;;;;;;;24.62;54.44;100908.63;5153789;27;19923;-36
2022/08/19 02:14:05;;;;;;;;;;;;;;;24.62;54.32;100903.06;5152331;27;20365;-36
2022/08/19 02:16:31;;;;;;;;;;;;;;;24.61;54.39;100901.41;5128581;27;20065;-36
2022/08/19 02:18:56;;;;;;;;;;;;;;;24.61;54.31;100906.97;5134357;27;19924;-36
2022/08/19 02:21:22;;;;;;;;;;;;;;;24.61;54.30;100910.59;5153391;27;19934;-36
2022/08/19 02:23:48;;;;;;;;;;;;;;;24.60;54.26;100914.50;5152458;27;19934;-36
2022/08/19 02:26:13;;;;;;;;;;;;;;;24.61;54.33;100912.53;5134840;27;19935;-36
2022/08/19 02:28:39;;;;;;;;;;;;;;;24.61;54.32;100912.53;5152864;27;20322;-36
2022/08/19 02:31:08;;;;;;;;;;;;;;;24.60;54.34;100916.47;5151498;27;19974;-36
2022/08/19 02:33:34;;;;;;;;;;;;;;;24.59;54.29;100924.00;5150924;27;19987;-36
2022/08/19 02:36:02;;;;;;;;;;;;;;;24.60;54.38;100922.88;5150844;27;21730;-36
2022/08/19 02:38:28;;;;;;;;;;;;;;;24.60;54.40;100908.13;5152551;27;20357;-36
2022/08/19 02:40:55;;;;;;;;;;;;;;;24.60;54.27;100908.13;5152692;27;19923;-36
2022/08/19 02:43:21;;;;;;;;;;;;;;;24.60;54.46;100910.91;5150743;27;19966;-36
2022/08/19 02:45:48;;;;;;;;;;;;;;;24.60;54.38;100919.25;5131840;27;19954;-36
2022/08/19 02:48:16;;;;;;;;;;;;;;;24.60;54.29;100924.81;5133563;27;19966;-36
2022/08/19 02:50:47;;;;;;;;;;;;;;;24.60;54.39;100927.63;5146733;27;20518;-36
2022/08/19 02:53:18;;;;;;;;;;;;;;;24.59;54.25;100926.78;5134004;27;20365;-39
2022/08/19 02:55:45;;;;;;;;;;;;;;;24.59;54.23;100925.97;5151021;27;19968;-36
2022/08/19 02:58:12;;;;;;;;;;;;;;;24.59;54.33;100932.34;5151899;27;19967;-36
2022/08/19 03:00:42;;;;;;;;;;;;;;;24.59;54.28;100931.53;5134792;27;19924;-36
2022/08/19 03:03:07;;;;;;;;;;;;;;;24.59;54.29;100928.75;5133038;27;19962;-36
2022/08/19 03:05:33;;;;;;;;;;;;;;;24.59;54.44;100934.31;5150649;27;19923;-36
2022/08/19 03:08:19;;;;;;;;;;;;;;;24.58;54.33;100939.06;5135169;27;19950;-36
2022/08/19 03:10:47;;;;;;;;;;;;;;;24.59;54.24;100937.94;5147113;27;19938;-36
2022/08/19 03:13:13;;;;;;;;;;;;;;;24.58;54.19;100936.28;5133633;27;19942;-36
2022/08/19 03:15:40;;;;;;;;;;;;;;;24.58;54.16;100935.47;5149918;27;19966;-36
2022/08/19 03:18:05;;;;;;;;;;;;;;;24.58;54.29;100930.72;5133705;27;20006;-36
2022/08/19 03:20:33;;;;;;;;;;;;;;;24.58;54.24;100932.69;5148586;27;19942;-36
2022/08/19 03:22:59;;;;;;;;;;;;;;;24.59;54.25;100931.53;5152255;27;19931;-36
2022/08/19 03:25:24;;;;;;;;;;;;;;;24.58;54.23;100933.50;5151619;27;19923;-36
2022/08/19 03:27:50;;;;;;;;;;;;;;;24.58;54.37;100927.13;5150426;27;20422;-36
2022/08/19 03:30:15;;;;;;;;;;;;;;;24.57;54.34;100926.31;5152058;27;19923;-36
2022/08/19 03:32:48;;;;;;;;;;;;;;;24.58;54.28;100929.91;5150981;27;19974;-36
2022/08/19 03:35:22;;;;;;;;;;;;;;;24.57;54.21;100934.66;5149399;27;19983;-36
2022/08/19 03:37:47;;;;;;;;;;;;;;;24.58;54.18;100936.28;5146939;27;20277;-36
2022/08/19 03:40:13;;;;;;;;;;;;;;;24.57;54.24;100934.66;5148924;27;19923;-36
2022/08/19 03:42:42;;;;;;;;;;;;;;;24.58;54.23;100930.72;5151118;27;19930;-36
2022/08/19 03:45:14;;;;;;;;;;;;;;;24.57;54.37;100937.44;5150542;27;20484;-36
2022/08/19 03:47:40;;;;;;;;;;;;;;;24.57;54.30;100933.81;5152878;27;19942;-37
2022/08/19 03:50:06;;;;;;;;;;;;;;;24.57;54.30;100933.81;5154279;27;19976;-36
2022/08/19 03:52:31;;;;;;;;;;;;;;;24.58;54.29;100929.91;5154245;27;19980;-36
2022/08/19 03:54:57;;;;;;;;;;;;;;;24.58;54.20;100932.69;5155301;27;19930;-36
2022/08/19 03:57:22;;;;;;;;;;;;;;;24.56;54.13;100923.81;5153866;27;20296;-36
2022/08/19 03:59:57;;;;;;;;;;;;;;;24.57;54.28;100934.66;5154881;27;19922;-36
2022/08/19 04:02:39;;;;;;;;;;;;;;;24.57;54.17;100945.78;5152289;27;20365;-36
2022/08/19 04:05:05;;;;;;;;;;;;;;;24.56;54.32;100935.78;5142540;27;20074;-36
2022/08/19 04:07:30;;;;;;;;;;;;;;;24.56;54.29;100932.97;5151998;27;20014;-36
2022/08/19 04:09:56;;;;;;;;;;;;;;;24.57;54.28;100933.81;5155357;27;19923;-36
2022/08/19 04:12:21;;;;;;;;;;;;;;;24.56;54.29;100935.78;5155400;27;19938;-36
2022/08/19 04:14:47;;;;;;;;;;;;;;;24.56;54.27;100938.56;5154637;27;19923;-36
2022/08/19 04:17:13;;;;;;;;;;;;;;;24.56;54.18;100946.91;5154052;27;19923;-36
2022/08/19 04:19:39;;;;;;;;;;;;;;;24.55;54.22;100934.13;5154787;27;20352;-36
2022/08/19 04:22:05;;;;;;;;;;;;;;;24.56;54.28;100940.53;5135658;27;19931;-36
2022/08/19 04:24:30;;;;;;;;;;;;;;;24.56;54.27;100924.63;5131997;27;20073;-36
2022/08/19 04:26:56;;;;;;;;;;;;;;;24.57;54.28;100933.81;5153444;27;19930;-36
2022/08/19 04:29:24;;;;;;;;;;;;;;;24.56;54.29;100937.75;5153818;27;19931;-36
2022/08/19 04:31:50;;;;;;;;;;;;;;;24.55;54.25;100936.91;5150769;27;20334;-36
2022/08/19 04:34:16;;;;;;;;;;;;;;;24.56;54.21;100943.31;5153252;27;19930;-36
2022/08/19 04:36:44;;;;;;;;;;;;;;;24.55;54.20;100934.13;5135756;27;19933;-36
2022/08/19 04:39:10;;;;;;;;;;;;;;;24.55;54.26;100942.50;5152783;27;20345;-36
2022/08/19 04:44:21;;;;;;;;;;;;;;;24.56;54.31;100943.31;5138472;27;20025;-36
2022/08/19 04:46:48;;;;;;;;;;;;;;;24.56;54.36;100946.91;5153255;27;19923;-36
2022/08/19 04:49:18;;;;;;;;;;;;;;;24.55;54.31;100945.28;5154911;27;20052;-36
2022/08/19 04:51:44;;;;;;;;;;;;;;;24.54;54.26;100954.78;5152041;27;19967;-37
2022/08/19 04:54:11;;;;;;;;;;;;;;;24.56;54.04;100965.59;5154409;27;19923;-37
2022/08/19 04:56:37;;;;;;;;;;;;;;;24.55;54.19;100964.75;5149402;27;19978;-36
2022/08/19 04:59:04;;;;;;;;;;;;;;;24.54;54.15;100968.69;5154786;27;19927;-36
2022/08/19 05:01:30;;;;;;;;;;;;;;;24.54;54.04;100965.91;5134960;27;20019;-36
2022/08/19 05:03:56;;;;;;;;;;;;;;;24.55;53.98;100975.06;5153464;27;19991;-36
2022/08/19 05:06:22;;;;;;;;;;;;;;;24.53;53.99;100979.00;5153199;27;20268;-36
2022/08/19 05:08:47;;;;;;;;;;;;;;;24.54;53.95;100982.59;5139240;27;20006;-36
2022/08/19 05:11:21;;;;;;;;;;;;;;;24.34;54.51;100989.44;5146322;27;19927;-40
2022/08/19 05:13:52;;;;;;;;;;;;;;;24.18;54.90;100994.56;5149314;27;20420;-37
2022/08/19 05:16:19;;;;;;;;;;;;;;;24.32;54.77;100988.13;5149439;27;19923;-36
2022/08/19 05:24:16;;;;;;;;;;;;;;;24.52;54.16;101001.56;5132578;27;20026;-39
2022/08/19 05:26:42;;;;;;;;;;;;;;;24.52;54.09;100996.00;5133675;27;19970;-36
2022/08/19 05:29:09;;;;;;;;;;;;;;;24.52;53.90;100999.66;5132932;27;20408;-37
2022/08/19 05:31:35;;;;;;;;;;;;;;;24.53;53.96;100998.50;5129268;27;20392;-37
2022/08/19 05:34:01;;;;;;;;;;;;;;;24.55;54.00;101003.75;5129582;27;19923;-37
2022/08/19 05:36:27;;;;;;;;;;;;;;;24.55;53.99;101000.13;5151021;27;19931;-37
2022/08/19 05:38:53;;;;;;;;;;;;;;;24.56;54.13;101002.59;5124244;27;20054;-40
2022/08/19 05:41:19;;;;;;;;;;;;;;;24.52;54.16;100996.84;5141228;27;19979;-36
2022/08/19 05:43:44;;;;;;;;;;;;;;;24.55;54.11;100998.16;5137402;27;20014;-36
2022/08/19 05:46:15;;;;;;;;;;;;;;;24.57;53.99;100995.91;5148120;27;19976;-37
2022/08/19 05:48:40;;;;;;;;;;;;;;;24.59;53.88;101003.94;5144769;27;20014;-36
2022/08/19 05:51:06;;;;;;;;;;;;;;;24.58;53.94;101000.34;5144243;27;19927;-38
2022/08/19 05:53:33;;;;;;;;;;;;;;;24.59;53.93;101004.75;5118315;27;19934;-36
2022/08/19 05:56:03;;;;;;;;;;;;;;;24.60;53.97;101008.34;5113308;27;20452;-36
2022/08/19 05:58:28;;;;;;;;;;;;;;;24.60;53.89;101000.00;5111531;27;20018;-36
2022/08/19 06:00:54;;;;;;;;;;;;;;;24.59;54.04;101001.97;5136484;27;20364;-37
2022/08/19 06:03:20;;;;;;;;;;;;;;;24.60;54.07;100997.22;5136199;27;19939;-36
2022/08/19 06:05:45;;;;;;;;;;;;;;;24.61;54.07;100998.84;5126754;27;20265;-36
2022/08/19 06:08:18;;;;;;;;;;;;;;;24.61;54.24;101010.84;5139251;27;20400;-37
2022/08/19 06:10:43;;;;;;;;;;;;;;;24.54;54.51;101013.25;5148347;27;20400;-38
2022/08/19 06:13:09;;;;;;;;;;;;;;;24.15;55.68;101002.72;5143773;27;20114;-38
2022/08/19 06:15:34;;;;;;;;;;;;;;;24.43;54.96;101006.25;5144162;27;20607;-36
2022/08/19 06:18:00;;;;;;;;;;;;;;;24.52;54.77;101002.44;5139471;27;19931;-36
2022/08/19 06:20:26;;;;;;;;;;;;;;;24.56;54.60;100996.19;5143695;27;20372;-37
2022/08/19 06:23:12;;;;;;;;;;;;;;;24.59;54.55;100998.38;5126960;27;19932;-36
2022/08/19 06:25:42;;;;;;;;;;;;;;;24.59;54.54;101007.53;5149217;27;19923;-38
2022/08/19 06:28:07;;;;;;;;;;;;;;;24.60;54.55;100995.25;5140384;27;19932;-38
2022/08/19 06:30:41;;;;;;;;;;;;;;;24.61;54.47;100998.84;5141895;27;19931;-37
2022/08/19 06:33:07;;;;;;;;;;;;;;;24.41;55.00;100991.84;5136150;27;20282;-38
2022/08/19 06:35:32;;;;;;;;;;;;;;;24.46;54.93;100991.72;5144579;27;19931;-36
2022/08/19 06:37:59;;;;;;;;;;;;;;;24.56;54.73;100993.41;5145448;27;19923;-36
2022/08/19 06:40:27;;;;;;;;;;;;;;;24.59;54.44;100992.78;5148120;27;20371;-37
2022/08/19 06:42:53;;;;;;;;;;;;;;;24.62;54.50;100994.97;5135016;27;20472;-37
2022/08/19 06:45:21;;;;;;;;;;;;;;;24.62;54.67;100998.56;5134419;27;19927;-36
2022/08/19 06:47:54;;;;;;;;;;;;;;;24.64;54.54;101001.03;5139571;27;20141;-36
2022/08/19 06:50:19;;;;;;;;;;;;;;;24.64;54.52;100999.06;5134353;27;19962;-37
2022/08/19 06:52:46;;;;;;;;;;;;;;;24.65;54.43;101002.66;5134589;27;19931;-37
2022/08/19 06:55:12;;;;;;;;;;;;;;;24.65;54.49;101011.00;5135216;27;20369;-37
2022/08/19 06:57:37;;;;;;;;;;;;;;;24.66;54.49;101013.50;5143870;27;19930;-37
2022/08/19 07:00:04;;;;;;;;;;;;;;;24.66;54.60;101015.47;5136551;27;19931;-37
2022/08/19 07:02:29;;;;;;;;;;;;;;;24.67;54.60;101014.31;5137141;27;19970;-37
2022/08/19 07:04:57;;;;;;;;;;;;;;;24.67;54.52;101014.31;5123843;27;20337;-37
2022/08/19 07:07:24;;;;;;;;;;;;;;;24.65;54.71;101014.63;5130099;27;20054;-37
2022/08/19 07:09:50;;;;;;;;;;;;;;;24.66;54.67;101013.50;5135974;27;19939;-37
2022/08/19 07:12:25;;;;;;;;;;;;;;;24.68;54.68;101014.00;5140302;27;19927;-37
2022/08/19 07:14:52;;;;;;;;;;;;;;;24.68;54.70;101022.34;5144437;27;19923;-37
2022/08/19 07:17:20;;;;;;;;;;;;;;;24.68;54.75;101022.34;5139168;27;20385;-37
2022/08/19 07:19:46;;;;;;;;;;;;;;;24.67;54.64;101022.69;5122711;27;19930;-37
2022/08/19 07:22:12;;;;;;;;;;;;;;;24.67;54.67;101023.50;5140155;27;19927;-37
2022/08/19 07:24:38;;;;;;;;;;;;;;;24.67;54.76;101028.25;5140714;27;19935;-37
2022/08/19 07:27:10;;;;;;;;;;;;;;;24.69;54.59;101025.94;5142379;27;20363;-37
2022/08/19 07:29:41;;;;;;;;;;;;;;;24.67;54.66;101028.25;5144891;27;20273;-37
2022/08/19 07:32:06;;;;;;;;;;;;;;;24.67;54.67;101036.59;5148731;27;19931;-37
2022/08/19 07:34:37;;;;;;;;;;;;;;;24.67;54.52;101033.81;5137580;27;19941;-37
2022/08/19 07:37:05;;;;;;;;;;;;;;;24.70;54.45;101033.19;5138332;27;19931;-37
2022/08/19 07:39:31;;;;;;;;;;;;;;;24.70;54.57;101031.22;5144145;27;20338;-37
2022/08/19 07:41:58;;;;;;;;;;;;;;;24.70;54.66;101039.56;5125993;27;19950;-37
2022/08/19 07:44:24;;;;;;;;;;;;;;;24.71;54.54;101037.63;5147178;27;20018;-37
2022/08/19 07:46:51;;;;;;;;;;;;;;;24.70;54.78;101039.56;5141925;27;20022;-37
2022/08/19 07:49:19;;;;;;;;;;;;;;;24.70;54.56;101045.16;5123598;27;20359;-37
2022/08/19 07:51:48;;;;;;;;;;;;;;;24.69;54.40;101042.66;5120649;27;19955;-37
2022/08/19 07:54:14;;;;;;;;;;;;;;;24.71;54.44;101051.53;5111660;27;19985;-37
2022/08/19 07:56:39;;;;;;;;;;;;;;;24.72;54.78;101055.97;5138593;27;20340;-37
2022/08/19 07:59:05;;;;;;;;;;;;;;;24.72;54.67;101055.97;5131828;27;19931;-38
2022/08/19 08:01:31;;;;;;;;;;;;;;;24.73;54.91;101060.38;5135397;27;19990;-37
2022/08/19 08:09:29;;;;;;;;;;;;;;;24.72;54.87;101073.50;5132759;27;19923;-36
2022/08/19 08:11:59;;;;;;;;;;;;;;;24.72;54.97;101072.69;5138934;27;19951;-37
2022/08/19 08:14:36;;;;;;;;;;;;;;;24.72;55.12;101069.88;5123319;27;19931;-37
2022/08/19 08:17:03;;;;;;;;;;;;;;;24.72;55.19;101069.88;5137545;27;19978;-37
2022/08/19 08:19:36;;;;;;;;;;;;;;;24.72;55.12;101069.88;5123609;27;20008;-37
2022/08/19 08:22:02;;;;;;;;;;;;;;;24.72;55.16;101081.03;5132104;27;19991;-37
2022/08/19 08:24:30;;;;;;;;;;;;;;;24.73;55.19;101072.34;5136368;27;19923;-38
2022/08/19 08:26:58;;;;;;;;;;;;;;;24.74;55.10;101081.53;5126102;27;19970;-37
2022/08/19 08:29:25;;;;;;;;;;;;;;;24.73;55.16;101072.34;5143004;27;19971;-37
2022/08/19 08:31:51;;;;;;;;;;;;;;;24.73;55.16;101085.44;5143502;27;20359;-37
2022/08/19 08:34:25;;;;;;;;;;;;;;;24.73;55.18;101089.06;5145531;27;19923;-37
2022/08/19 08:36:51;;;;;;;;;;;;;;;24.74;55.07;101082.38;5135422;27;19979;-37
2022/08/19 08:39:18;;;;;;;;;;;;;;;24.68;55.86;101089.19;5137375;27;20014;-37
2022/08/19 08:42:03;;;;;;;;;;;;;;;24.67;55.89;101095.91;5111743;27;20021;-37
2022/08/19 08:44:47;;;;;;;;;;;;;;;24.72;55.54;101090.19;5125139;27;19931;-37
2022/08/19 08:47:13;;;;;;;;;;;;;;;24.73;55.42;101091.84;5132704;27;19931;-37
2022/08/19 08:52:35;;;;;;;;;;;;;;;24.72;55.33;101081.03;5152657;27;20775;-35
2022/08/19 08:55:03;;;;;;;;;;;;;;;24.72;55.37;101083.81;5118742;27;20026;-35
2022/08/19 08:57:55;;;;;;;;;;;;;;;24.72;55.11;101079.06;5126639;27;19928;-35
2022/08/19 09:00:24;;;;;;;;;;;;;;;24.74;55.01;101087.09;5136107;27;20014;-34
2022/08/19 09:02:50;;;;;;;;;;;;;;;24.73;54.90;101079.88;5142527;27;20006;-35
2022/08/19 09:05:20;;;;;;;;;;;;;;;24.75;54.88;101077.63;5120609;27;20142;-37
2022/08/19 09:07:55;;;;;;;;;;;;;;;24.73;54.80;101082.66;5139426;27;19968;-40
2022/08/19 09:10:27;;;;;;;;;;;;;;;24.74;54.91;101071.22;5138531;27;20583;-37
2022/08/19 09:13:00;;;;;;;;;;;;;;;24.75;54.73;101070.09;5139203;27;19938;-39
2022/08/19 09:15:29;;;;;;;;;;;;;;;24.73;54.67;101080.69;5132663;27;19967;-37
2022/08/19 09:17:59;;;;;;;;;;;;;;;24.76;54.57;101079.25;5116289;27;19927;-39
2022/08/19 09:20:25;;;;;;;;;;;;;;;24.75;54.57;101072.06;5136955;27;19966;-37
2022/08/19 09:22:51;;;;;;;;;;;;;;;24.75;54.53;101083.19;5138812;27;19931;-37
2022/08/19 09:25:18;;;;;;;;;;;;;;;24.74;54.42;101076.81;5135703;27;19946;-37
2022/08/19 09:27:53;;;;;;;;;;;;;;;24.76;54.42;101077.28;5136213;27;19935;-37
2022/08/19 09:30:21;;;;;;;;;;;;;;;24.76;54.46;101079.25;5132679;27;20102;-37
2022/08/19 09:32:47;;;;;;;;;;;;;;;24.78;54.32;101068.63;5121812;27;19997;-37
2022/08/19 09:35:18;;;;;;;;;;;;;;;24.78;54.40;101072.25;5134902;27;19954;-36
2022/08/19 09:37:43;;;;;;;;;;;;;;;24.79;54.30;101067.50;5118497;27;20559;-37
2022/08/19 09:40:10;;;;;;;;;;;;;;;24.82;54.20;101071.59;5138834;27;19942;-37
2022/08/19 09:42:37;;;;;;;;;;;;;;;24.83;54.24;101073.22;5130481;27;20057;-37
2022/08/19 09:45:04;;;;;;;;;;;;;;;24.82;54.30;101068.81;5128864;27;20334;-39
2022/08/19 09:47:30;;;;;;;;;;;;;;;24.83;54.26;101073.22;5129177;27;19931;-39
2022/08/19 09:49:57;;;;;;;;;;;;;;;24.83;54.18;101067.66;5123629;27;19932;-38
2022/08/19 09:52:23;;;;;;;;;;;;;;;24.82;54.08;101063.25;5132190;27;20009;-37
2022/08/19 09:54:51;;;;;;;;;;;;;;;24.81;53.85;101069.97;5133016;27;19938;-38
2022/08/19 09:57:17;;;;;;;;;;;;;;;24.80;53.87;101069.13;5112112;27;20313;-37
2022/08/19 09:59:44;;;;;;;;;;;;;;;24.80;53.99;101069.13;5126749;27;19931;-37
2022/08/19 10:02:10;;;;;;;;;;;;;;;24.79;53.92;101061.94;5129696;27;20014;-37
2022/08/19 10:07:22;;;;;;;;;;;;;;;24.79;53.96;101075.84;5099132;28;20018;-37
2022/08/19 10:09:54;;;;;;;;;;;;;;;24.80;53.94;101071.94;5116712;27;19938;-38
2022/08/19 10:12:21;;;;;;;;;;;;;;;24.78;53.78;101065.81;5117120;27;19954;-38
2022/08/19 10:14:47;;;;;;;;;;;;;;;24.78;53.47;101072.25;5118300;27;20345;-38
2022/08/19 10:17:14;;;;;;;;;;;;;;;24.77;53.59;101065.00;5118725;27;19924;-40
2022/08/19 10:19:46;;;;;;;;;;;;;;;24.78;53.63;101058.31;5117296;28;20338;-37
2022/08/19 10:22:21;;;;;;;;;;;;;;;24.78;53.60;101060.25;5121480;28;19924;-37
2022/08/19 10:24:46;;;;;;;;;;;;;;;24.79;53.74;101059.16;5120660;28;20339;-39
2022/08/19 10:27:13;;;;;;;;;;;;;;;24.81;53.80;101058.81;5119705;27;19938;-36
2022/08/19 10:29:41;;;;;;;;;;;;;;;24.83;53.97;101050.94;5102450;28;19935;-36
2022/08/19 10:32:11;;;;;;;;;;;;;;;24.81;54.01;101048.50;5120918;28;19931;-37
2022/08/19 10:34:39;;;;;;;;;;;;;;;24.77;53.58;101050.25;5117424;27;20274;-41
2022/08/19 10:37:14;;;;;;;;;;;;;;;24.79;53.60;101045.22;5101028;28;20316;-38
2022/08/19 10:39:41;;;;;;;;;;;;;;;24.83;53.64;101045.38;5096132;28;20381;-37
2022/08/19 10:42:12;;;;;;;;;;;;;;;24.84;53.75;101055.41;5113908;27;19938;-37
2022/08/19 10:44:38;;;;;;;;;;;;;;;24.85;53.75;101065.41;5109269;27;20344;-36
2022/08/19 10:47:03;;;;;;;;;;;;;;;24.83;53.59;101054.59;5114292;27;19943;-38
2022/08/19 10:52:35;;;;;;;;;;;;;;;24.84;53.73;101056.22;5103917;27;20027;-37
2022/08/19 10:57:54;;;;;;;;;;;;;;;24.84;53.51;101047.06;5087406;28;19931;-40
2022/08/19 11:00:28;;;;;;;;;;;;;;;24.84;53.58;101047.06;5116980;27;20303;-38
2022/08/19 11:02:55;;;;;;;;;;;;;;;24.83;53.11;101049.00;5118889;27;20002;-39
2022/08/19 11:05:22;;;;;;;;;;;;;;;24.83;53.38;101042.59;5120032;28;20377;-38
2022/08/19 11:07:51;;;;;;;;;;;;;;;24.82;53.16;101044.56;5119484;27;19953;-38
2022/08/19 11:10:18;;;;;;;;;;;;;;;24.84;53.23;101042.31;5122876;27;20080;-38
2022/08/19 11:12:47;;;;;;;;;;;;;;;24.83;53.15;101035.09;5119614;27;19953;-37
2022/08/19 11:15:13;;;;;;;;;;;;;;;24.82;53.25;101039.00;5099769;27;20425;-37
2022/08/19 11:17:41;;;;;;;;;;;;;;;24.82;53.09;101041.78;5112764;27;19939;-38
2022/08/19 11:20:07;;;;;;;;;;;;;;;24.83;53.03;101035.09;5116507;27;20017;-39
2022/08/19 11:22:32;;;;;;;;;;;;;;;24.81;52.16;101042.91;5114914;27;19952;-37
2022/08/19 11:25:07;;;;;;;;;;;;;;;24.86;52.34;101031.66;5114942;27;20410;-37
2022/08/19 11:27:33;;;;;;;;;;;;;;;24.87;52.21;101033.31;5110528;27;19977;-38
2022/08/19 11:30:00;;;;;;;;;;;;;;;24.87;52.41;101033.31;5096892;28;20361;-38
2022/08/19 11:32:26;;;;;;;;;;;;;;;24.86;52.48;101039.19;5112890;28;20014;-38
2022/08/19 11:34:51;;;;;;;;;;;;;;;24.89;52.72;101077.56;5101813;27;19938;-38
2022/08/19 11:37:17;;;;;;;;;;;;;;;24.90;52.39;101035.44;5118457;27;19931;-37
2022/08/19 11:39:42;;;;;;;;;;;;;;;24.90;52.41;101037.41;5121860;27;19929;-39
2022/08/19 11:44:53;;;;;;;;;;;;;;;24.90;51.71;101020.69;5097488;27;20018;-35
2022/08/19 11:47:19;;;;;;;;;;;;;;;24.84;51.53;101022.81;5116278;27;19938;-38
2022/08/19 11:49:45;;;;;;;;;;;;;;;24.88;51.67;101018.25;5095265;28;19982;-38
2022/08/19 11:52:11;;;;;;;;;;;;;;;24.89;51.87;101025.44;5114054;28;20037;-37
2022/08/19 11:54:36;;;;;;;;;;;;;;;24.79;50.63;101017.38;5113630;28;20500;-39
2022/08/19 11:57:02;;;;;;;;;;;;;;;24.85;50.85;101016.09;5114002;27;19927;-37
2022/08/19 11:59:29;;;;;;;;;;;;;;;24.87;50.81;101015.75;5116332;27;20023;-38
2022/08/19 12:01:55;;;;;;;;;;;;;;;24.91;51.77;101013.97;5116142;28;19962;-39
2022/08/19 12:04:21;;;;;;;;;;;;;;;24.91;51.16;101022.34;5119668;28;19931;-38
2022/08/19 12:06:47;;;;;;;;;;;;;;;24.89;50.83;101014.31;5120896;28;19924;-40
2022/08/19 12:09:14;;;;;;;;;;;;;;;24.89;51.94;101003.16;5121698;28;19936;-35
2022/08/19 12:11:40;;;;;;;;;;;;;;;24.89;51.05;101011.53;5120778;28;20107;-37
2022/08/19 12:14:06;;;;;;;;;;;;;;;24.90;51.77;101009.56;5098835;28;20014;-36
2022/08/19 12:16:32;;;;;;;;;;;;;;;24.91;51.51;101016.75;5121714;28;20012;-35
2022/08/19 12:19:03;;;;;;;;;;;;;;;24.91;51.47;101013.97;5119444;28;19928;-35
2022/08/19 12:21:29;;;;;;;;;;;;;;;24.91;51.63;101008.41;5123036;28;20003;-35
2022/08/19 12:23:55;;;;;;;;;;;;;;;24.91;51.47;101002.84;5103360;28;20395;-37
2022/08/19 12:26:21;;;;;;;;;;;;;;;24.91;52.06;101002.84;5106104;28;20339;-35
2022/08/19 12:28:47;;;;;;;;;;;;;;;24.89;51.35;101003.16;5124502;28;20359;-36
2022/08/19 12:31:13;;;;;;;;;;;;;;;24.89;51.23;101003.16;5120212;28;20065;-36
2022/08/19 12:33:40;;;;;;;;;;;;;;;24.88;51.29;100993.16;5103642;28;19927;-35
2022/08/19 12:36:07;;;;;;;;;;;;;;;24.90;51.27;100998.41;5119909;27;19990;-36
2022/08/19 12:38:34;;;;;;;;;;;;;;;24.91;51.20;100997.25;5119341;28;20026;-35
2022/08/19 12:40:59;;;;;;;;;;;;;;;24.90;51.25;100995.63;5122107;27;20275;-35
2022/08/19 12:43:26;;;;;;;;;;;;;;;24.89;51.53;100991.22;5100914;28;19949;-36
2022/08/19 12:45:51;;;;;;;;;;;;;;;24.89;51.21;100991.22;5115964;28;19931;-38
2022/08/19 12:48:18;;;;;;;;;;;;;;;24.89;51.37;100988.41;5124514;28;19932;-35
2022/08/19 12:50:59;;;;;;;;;;;;;;;24.90;51.49;100987.28;5125081;28;20311;-35
2022/08/19 12:53:25;;;;;;;;;;;;;;;24.90;51.54;100990.88;5107272;28;20032;-35
2022/08/19 12:55:57;;;;;;;;;;;;;;;24.78;50.36;100993.41;5120192;28;19942;-37
2022/08/19 12:58:23;;;;;;;;;;;;;;;24.83;50.99;100996.09;5099431;28;20362;-36
2022/08/19 13:00:52;;;;;;;;;;;;;;;24.87;51.09;100999.88;5122574;28;19935;-35
2022/08/19 13:03:18;;;;;;;;;;;;;;;24.86;51.39;100981.50;5125365;28;19928;-36
2022/08/19 13:05:43;;;;;;;;;;;;;;;24.88;51.63;100987.59;5122688;28;19923;-35